Time;durP1;ratioP1;P1;durP2;ratioP2;P2;SDS_P1;SDS_P2;PMS_P1;PMS_P2;Temp;Humidity;BMP_temperature;BMP_pressure;BME280_temperature;BME280_humidity;BME280_pressure;Samples;Min_cycle;Max_cycle;Signal;HPM_P1;HPM_P2
2022/06/06 00:01:09;;;;;;;;;4.00;3.00;;;;;;;;5144027;27;9828;-80
2022/06/06 00:03:35;;;;;;;;;4.75;3.00;;;;;;;;5144338;27;10820;-80
2022/06/06 00:06:00;;;;;;;;;4.25;2.00;;;;;;;;5125710;27;10104;-80
2022/06/06 00:08:25;;;;;;;;;2.00;2.00;;;;;;;;5144090;27;8795;-80
2022/06/06 00:10:54;;;;;;;;;3.50;3.50;;;;;;;;5144300;27;8834;-80
2022/06/06 00:13:19;;;;;;;;;3.00;2.00;;;;;;;;5143910;27;8771;-80
2022/06/06 00:15:44;;;;;;;;;5.00;4.00;;;;;;;;5144287;27;9950;-80
2022/06/06 00:18:10;;;;;;;;;5.00;2.75;;;;;;;;5143963;27;8763;-80
2022/06/06 00:20:35;;;;;;;;;7.50;2.25;;;;;;;;5144092;27;9650;-80
2022/06/06 00:23:00;;;;;;;;;4.25;3.50;;;;;;;;5125644;27;8900;-80
2022/06/06 00:25:27;;;;;;;;;3.75;3.75;;;;;;;;5144089;27;8829;-80
2022/06/06 00:27:53;;;;;;;;;4.25;2.00;;;;;;;;5144127;27;8731;-80
2022/06/06 00:30:18;;;;;;;;;2.00;2.00;;;;;;;;5124578;27;11571;-80
2022/06/06 00:35:47;;;;;;;;;3.25;2.00;;;;;;;;5080088;28;8805;-80
2022/06/06 00:38:13;;;;;;;;;3.00;3.00;;;;;;;;5079728;28;10002;-80
2022/06/06 00:40:38;;;;;;;;;4.50;4.00;;;;;;;;5063137;28;9986;-80
2022/06/06 00:43:03;;;;;;;;;5.50;3.25;;;;;;;;5080227;28;8793;-80
2022/06/06 00:45:31;;;;;;;;;4.00;3.00;;;;;;;;5079676;28;8801;-79
2022/06/06 00:48:00;;;;;;;;;7.00;4.00;;;;;;;;5079856;28;8793;-80
2022/06/06 00:50:33;;;;;;;;;3.00;2.75;;;;;;;;5062867;28;10308;-80
2022/06/06 00:52:59;;;;;;;;;3.00;3.00;;;;;;;;5079969;28;10222;-80
2022/06/06 00:55:27;;;;;;;;;5.50;2.25;;;;;;;;5079781;28;10286;-80
2022/06/06 00:57:56;;;;;;;;;5.75;3.00;;;;;;;;5079727;28;8745;-80
2022/06/06 01:00:21;;;;;;;;;8.00;5.00;;;;;;;;5079017;28;10389;-79
2022/06/06 01:02:48;;;;;;;;;5.50;3.50;;;;;;;;5062977;28;10287;-80
2022/06/06 01:05:14;;;;;;;;;3.25;3.00;;;;;;;;5079824;28;8742;-80
2022/06/06 01:07:40;;;;;;;;;4.25;4.00;;;;;;;;5141062;27;10240;-80
2022/06/06 01:10:06;;;;;;;;;4.75;3.25;;;;;;;;5143497;27;8758;-80
2022/06/06 01:12:32;;;;;;;;;4.50;3.50;;;;;;;;5143025;27;10163;-79
2022/06/06 01:14:58;;;;;;;;;4.75;4.75;;;;;;;;5124632;27;9574;-80
2022/06/06 01:17:30;;;;;;;;;4.25;4.25;;;;;;;;5143541;27;8763;-80
2022/06/06 01:20:01;;;;;;;;;3.50;3.00;;;;;;;;5143309;27;10376;-80
2022/06/06 01:22:45;;;;;;;;;6.00;5.00;;;;;;;;5143140;27;10035;-80
2022/06/06 01:25:10;;;;;;;;;6.00;4.75;;;;;;;;5143250;27;10094;-80
2022/06/06 01:27:58;;;;;;;;;4.75;3.75;;;;;;;;5124786;27;10217;-80
2022/06/06 01:30:27;;;;;;;;;8.75;4.50;;;;;;;;5124139;27;10349;-80
2022/06/06 01:32:54;;;;;;;;;5.50;4.75;;;;;;;;5143464;27;10165;-80
2022/06/06 01:35:24;;;;;;;;;6.50;5.50;;;;;;;;5143104;27;10308;-80
2022/06/06 01:37:49;;;;;;;;;5.00;4.00;;;;;;;;5142941;27;10054;-79
2022/06/06 01:40:16;;;;;;;;;8.75;6.00;;;;;;;;5142871;27;10190;-79
2022/06/06 01:42:41;;;;;;;;;5.00;5.00;;;;;;;;5127336;27;8798;-80
2022/06/06 01:45:25;;;;;;;;;7.00;5.25;;;;;;;;5127801;27;10307;-79
2022/06/06 01:47:52;;;;;;;;;5.75;3.00;;;;;;;;5128111;27;8791;-80
2022/06/06 01:50:18;;;;;;;;;7.00;5.75;;;;;;;;5146578;27;10381;-80
2022/06/06 01:53:13;;;;;;;;;8.00;6.50;;;;;;;;5127730;27;10263;-79
2022/06/06 01:55:39;;;;;;;;;5.00;4.75;;;;;;;;5124012;27;10307;-80
2022/06/06 01:58:11;;;;;;;;;8.00;5.00;;;;;;;;5146034;27;10347;-79
2022/06/06 02:00:37;;;;;;;;;4.50;3.50;;;;;;;;5146024;27;10541;-80
2022/06/06 02:03:02;;;;;;;;;6.75;6.75;;;;;;;;5146284;27;10336;-80
2022/06/06 02:05:28;;;;;;;;;6.50;4.75;;;;;;;;5127573;27;8806;-80
2022/06/06 02:07:53;;;;;;;;;5.00;4.00;;;;;;;;5146237;27;8818;-80
2022/06/06 02:10:19;;;;;;;;;6.00;4.25;;;;;;;;5146293;27;8828;-80
2022/06/06 02:12:45;;;;;;;;;8.00;5.75;;;;;;;;5145988;27;8771;-79
2022/06/06 02:15:12;;;;;;;;;5.75;5.75;;;;;;;;5145762;27;10580;-79
2022/06/06 02:17:37;;;;;;;;;6.25;5.00;;;;;;;;5146064;27;8759;-80
2022/06/06 02:20:04;;;;;;;;;8.75;6.00;;;;;;;;5127566;27;10772;-80
2022/06/06 02:22:30;;;;;;;;;9.00;6.25;;;;;;;;5145980;27;8817;-79
2022/06/06 02:24:55;;;;;;;;;5.25;4.00;;;;;;;;5146134;27;11293;-80
2022/06/06 02:27:20;;;;;;;;;10.25;6.00;;;;;;;;5127172;27;10671;-79
2022/06/06 02:29:46;;;;;;;;;6.75;6.75;;;;;;;;5126809;27;9964;-79
2022/06/06 02:32:11;;;;;;;;;10.25;8.25;;;;;;;;5146039;27;8802;-80
2022/06/06 02:34:37;;;;;;;;;9.00;9.00;;;;;;;;5145851;27;8787;-79
2022/06/06 02:37:03;;;;;;;;;9.75;8.75;;;;;;;;5145649;27;8759;-79
2022/06/06 02:39:29;;;;;;;;;14.00;10.00;;;;;;;;5127316;27;10506;-79
2022/06/06 02:41:56;;;;;;;;;18.00;14.00;;;;;;;;5145351;27;8793;-79
2022/06/06 02:44:22;;;;;;;;;12.00;10.50;;;;;;;;5126802;27;10891;-80
2022/06/06 02:46:47;;;;;;;;;13.25;12.25;;;;;;;;5145626;27;10640;-79
2022/06/06 02:49:13;;;;;;;;;19.00;15.75;;;;;;;;5145568;27;8818;-79
2022/06/06 02:51:38;;;;;;;;;20.25;17.00;;;;;;;;5145377;27;8783;-79
2022/06/06 02:54:03;;;;;;;;;16.75;10.75;;;;;;;;5145484;27;8799;-79
2022/06/06 02:56:29;;;;;;;;;12.25;10.00;;;;;;;;5145405;27;8826;-79
2022/06/06 02:58:55;;;;;;;;;13.75;9.50;;;;;;;;5144864;27;8796;-79
2022/06/06 03:01:21;;;;;;;;;13.50;11.00;;;;;;;;5145483;27;8713;-79
2022/06/06 03:03:47;;;;;;;;;9.50;8.25;;;;;;;;5145239;27;10495;-79
2022/06/06 03:06:23;;;;;;;;;11.25;11.00;;;;;;;;5126696;27;11372;-79
2022/06/06 03:08:57;;;;;;;;;11.50;10.50;;;;;;;;5145014;27;8744;-79
2022/06/06 03:11:41;;;;;;;;;12.25;8.75;;;;;;;;5144987;27;10687;-79
2022/06/06 03:14:19;;;;;;;;;9.75;9.75;;;;;;;;5145130;27;10401;-79
2022/06/06 03:22:51;;;;;;;;;7.00;4.50;;;;;;;;5145195;27;10373;-79
2022/06/06 03:25:26;;;;;;;;;6.50;5.50;;;;;;;;5126202;27;10368;-79
2022/06/06 03:27:51;;;;;;;;;4.50;2.25;;;;;;;;5144776;27;8756;-79
2022/06/06 03:30:19;;;;;;;;;2.50;2.50;;;;;;;;5144897;27;11134;-79
2022/06/06 03:32:51;;;;;;;;;4.00;4.00;;;;;;;;5126345;27;9705;-80
2022/06/06 03:35:25;;;;;;;;;3.25;3.25;;;;;;;;5126197;27;10131;-79
2022/06/06 03:37:58;;;;;;;;;2.75;2.75;;;;;;;;5144461;27;10250;-79
2022/06/06 03:40:43;;;;;;;;;4.50;2.50;;;;;;;;5144489;27;10565;-79
2022/06/06 03:43:18;;;;;;;;;4.25;2.00;;;;;;;;5144632;27;10511;-79
2022/06/06 03:45:50;;;;;;;;;4.25;4.25;;;;;;;;5144616;27;10282;-79
2022/06/06 03:48:27;;;;;;;;;2.00;2.00;;;;;;;;5144789;27;10469;-79
2022/06/06 03:51:02;;;;;;;;;3.25;2.75;;;;;;;;5144605;27;10495;-79
2022/06/06 03:53:46;;;;;;;;;3.00;3.00;;;;;;;;5125950;27;10372;-79
2022/06/06 03:56:24;;;;;;;;;6.25;3.75;;;;;;;;5144389;27;10121;-79
2022/06/06 03:58:50;;;;;;;;;3.75;3.00;;;;;;;;5144040;27;10271;-79
2022/06/06 04:01:16;;;;;;;;;5.00;2.00;;;;;;;;5144345;27;10545;-79
2022/06/06 04:03:45;;;;;;;;;3.00;3.00;;;;;;;;5143656;27;10437;-79
2022/06/06 04:06:10;;;;;;;;;3.00;3.00;;;;;;;;5144310;27;8919;-79
2022/06/06 04:08:35;;;;;;;;;4.00;3.00;;;;;;;;5125393;27;10244;-79
2022/06/06 04:11:13;;;;;;;;;2.25;2.25;;;;;;;;5125460;27;9984;-79
2022/06/06 04:13:38;;;;;;;;;3.00;3.00;;;;;;;;5144046;27;9079;-80
2022/06/06 04:16:11;;;;;;;;;2.75;2.75;;;;;;;;5144078;27;10305;-79
2022/06/06 04:18:57;;;;;;;;;1.50;1.50;;;;;;;;5125654;27;8796;-79
2022/06/06 04:21:33;;;;;;;;;3.25;3.25;;;;;;;;5144197;27;10351;-79
2022/06/06 04:24:08;;;;;;;;;5.50;4.00;;;;;;;;5143823;27;10436;-79
2022/06/06 04:26:41;;;;;;;;;3.50;2.00;;;;;;;;5144091;27;10343;-79
2022/06/06 04:29:09;;;;;;;;;6.00;4.50;;;;;;;;5143747;27;10263;-79
2022/06/06 04:31:40;;;;;;;;;1.00;1.00;;;;;;;;5125428;27;10486;-79
2022/06/06 04:34:19;;;;;;;;;2.50;2.00;;;;;;;;5144086;27;10391;-79
2022/06/06 04:36:50;;;;;;;;;2.25;2.25;;;;;;;;5144091;27;10158;-79
2022/06/06 04:39:15;;;;;;;;;2.00;2.00;;;;;;;;5142917;27;10245;-79
2022/06/06 04:41:57;;;;;;;;;3.75;2.00;;;;;;;;5143940;27;10222;-79
2022/06/06 04:44:28;;;;;;;;;3.00;1.00;;;;;;;;5143786;27;8735;-79
2022/06/06 04:46:57;;;;;;;;;2.00;2.00;;;;;;;;5125354;27;10142;-79
2022/06/06 04:49:25;;;;;;;;;2.75;2.75;;;;;;;;5143802;27;10291;-79
2022/06/06 04:51:52;;;;;;;;;3.00;2.00;;;;;;;;5143510;27;10396;-79
2022/06/06 04:54:20;;;;;;;;;1.00;1.00;;;;;;;;5125080;27;10074;-79
2022/06/06 04:56:46;;;;;;;;;1.50;1.50;;;;;;;;5125133;27;10278;-79
2022/06/06 04:59:11;;;;;;;;;1.00;1.00;;;;;;;;5143353;27;10182;-79
2022/06/06 05:01:38;;;;;;;;;1.50;1.00;;;;;;;;5143660;27;10596;-79
2022/06/06 05:04:03;;;;;;;;;5.50;1.00;;;;;;;;5125079;27;8725;-79
2022/06/06 05:06:39;;;;;;;;;3.75;1.00;;;;;;;;5143448;27;9966;-79
2022/06/06 05:09:05;;;;;;;;;3.00;2.00;;;;;;;;5124250;27;9678;-79
2022/06/06 05:11:37;;;;;;;;;1.75;1.75;;;;;;;;5124843;27;10414;-79
2022/06/06 05:14:06;;;;;;;;;1.00;0.50;;;;;;;;5143640;27;8725;-79
2022/06/06 05:16:41;;;;;;;;;0.75;0.75;;;;;;;;5127698;27;10209;-78
2022/06/06 05:19:35;;;;;;;;;2.00;0.00;;;;;;;;5147307;27;10039;-79
2022/06/06 05:22:04;;;;;;;;;0.75;0.00;;;;;;;;5042568;28;10377;-79
2022/06/06 05:24:32;;;;;;;;;1.00;1.00;;;;;;;;5042761;28;10426;-79
2022/06/06 05:27:13;;;;;;;;;2.25;1.00;;;;;;;;5026407;28;9975;-79
2022/06/06 05:29:50;;;;;;;;;1.00;1.00;;;;;;;;5042991;28;10366;-79
2022/06/06 05:32:25;;;;;;;;;0.00;0.00;;;;;;;;5042806;28;10388;-79
2022/06/06 05:35:03;;;;;;;;;1.50;0.25;;;;;;;;5042946;28;10204;-79
2022/06/06 05:37:40;;;;;;;;;0.00;0.00;;;;;;;;5042373;28;9957;-79
2022/06/06 05:40:28;;;;;;;;;1.00;0.00;;;;;;;;5026143;28;9870;-79
2022/06/06 05:42:53;;;;;;;;;0.25;0.25;;;;;;;;5026200;28;10535;-79
2022/06/06 05:45:31;;;;;;;;;2.50;0.50;;;;;;;;5042294;28;9727;-80
2022/06/06 05:47:56;;;;;;;;;0.00;0.00;;;;;;;;5042612;28;8831;-79
2022/06/06 05:50:34;;;;;;;;;1.00;1.00;;;;;;;;5042362;28;9534;-79
2022/06/06 05:53:02;;;;;;;;;0.75;0.75;;;;;;;;5042574;28;8770;-79
2022/06/06 05:55:30;;;;;;;;;0.00;0.00;;;;;;;;5042532;28;9635;-80
2022/06/06 05:57:58;;;;;;;;;2.00;0.00;;;;;;;;5051265;27;9591;-79
2022/06/06 06:00:27;;;;;;;;;0.25;0.25;;;;;;;;5146021;27;9523;-80
2022/06/06 06:03:11;;;;;;;;;2.00;0.50;;;;;;;;5127850;27;10118;-79
2022/06/06 06:05:39;;;;;;;;;0.00;0.00;;;;;;;;5127519;27;9637;-79
2022/06/06 06:08:17;;;;;;;;;0.00;0.00;;;;;;;;5146257;27;9565;-79
2022/06/06 06:10:42;;;;;;;;;0.00;0.00;;;;;;;;5146125;27;9560;-79
2022/06/06 06:13:26;;;;;;;;;0.00;0.00;;;;;;;;5127527;27;9962;-79
2022/06/06 06:15:52;;;;;;;;;0.67;0.00;;;;;;;;5127485;27;8739;-79
2022/06/06 06:18:40;;;;;;;;;1.75;0.25;;;;;;;;5146228;27;9339;-79
2022/06/06 06:21:17;;;;;;;;;1.00;1.00;;;;;;;;5145883;27;9667;-79
2022/06/06 06:23:52;;;;;;;;;1.00;1.00;;;;;;;;5145758;27;9824;-79
2022/06/06 06:26:18;;;;;;;;;0.50;0.50;;;;;;;;5145890;27;9828;-79
2022/06/06 06:28:45;;;;;;;;;0.00;0.00;;;;;;;;5145007;27;9562;-80
2022/06/06 06:31:17;;;;;;;;;0.00;0.00;;;;;;;;5137817;27;8846;-80
2022/06/06 06:34:05;;;;;;;;;0.33;0.33;;;;;;;;5145487;27;9445;-79
2022/06/06 06:36:37;;;;;;;;;1.00;1.00;;;;;;;;5145036;27;9427;-79
2022/06/06 06:39:21;;;;;;;;;1.00;0.00;;;;;;;;5127107;27;9431;-79
2022/06/06 06:42:04;;;;;;;;;0.67;0.67;;;;;;;;5145736;27;9399;-80
2022/06/06 06:44:39;;;;;;;;;1.00;1.00;;;;;;;;5145615;27;9522;-78
2022/06/06 06:47:15;;;;;;;;;0.00;0.00;;;;;;;;5145729;27;9511;-80
2022/06/06 06:49:53;;;;;;;;;0.00;0.00;;;;;;;;5126788;27;9617;-79
2022/06/06 06:52:24;;;;;;;;;0.50;0.50;;;;;;;;5145621;27;9649;-79
2022/06/06 06:54:58;;;;;;;;;0.00;0.00;;;;;;;;5145648;27;9862;-79
2022/06/06 06:57:38;;;;;;;;;1.00;1.00;;;;;;;;5145510;27;9619;-79
2022/06/06 07:00:06;;;;;;;;;2.00;1.00;;;;;;;;5145381;27;9578;-80
2022/06/06 07:08:34;;;;;;;;;1.75;0.50;;;;;;;;5144975;27;9621;-79
2022/06/06 07:11:02;;;;;;;;;1.00;0.33;;;;;;;;5145342;27;9671;-79
2022/06/06 07:13:53;;;;;;;;;0.00;0.00;;;;;;;;5145445;27;9336;-78
2022/06/06 07:16:23;;;;;;;;;1.00;1.00;;;;;;;;5125254;27;9847;-78
2022/06/06 07:18:55;;;;;;;;;0.00;0.00;;;;;;;;5145045;27;9801;-78
2022/06/06 07:21:21;;;;;;;;;0.00;0.00;;;;;;;;5145190;27;9738;-78
2022/06/06 07:23:48;;;;;;;;;0.75;0.75;;;;;;;;5144950;27;9740;-79
2022/06/06 07:26:14;;;;;;;;;0.00;0.00;;;;;;;;5145285;27;9832;-78
2022/06/06 07:28:39;;;;;;;;;1.00;0.00;;;;;;;;5126327;27;9872;-79
2022/06/06 07:31:07;;;;;;;;;2.00;0.75;;;;;;;;5145021;27;8806;-78
2022/06/06 07:33:51;;;;;;;;;0.50;0.50;;;;;;;;5144615;27;8755;-79
2022/06/06 07:36:19;;;;;;;;;1.00;0.00;;;;;;;;5125910;27;10330;-79
2022/06/06 07:39:03;;;;;;;;;0.00;0.00;;;;;;;;5124396;27;9777;-79
2022/06/06 07:41:34;;;;;;;;;0.00;0.00;;;;;;;;5144705;27;11059;-79
2022/06/06 07:44:23;;;;;;;;;1.50;0.00;;;;;;;;5125712;27;9482;-79
2022/06/06 07:46:55;;;;;;;;;0.00;0.00;;;;;;;;5037607;28;9858;-79
2022/06/06 07:49:23;;;;;;;;;0.00;0.00;;;;;;;;5039446;28;9860;-79
2022/06/06 07:51:56;;;;;;;;;0.00;0.00;;;;;;;;5022196;28;9929;-79
2022/06/06 07:54:42;;;;;;;;;2.00;1.00;;;;;;;;5032483;28;9748;-78
2022/06/06 07:57:30;;;;;;;;;3.00;0.00;;;;;;;;5020894;28;10260;-75
2022/06/06 08:00:05;;;;;;;;;1.25;0.00;;;;;;;;5043925;28;9580;-75
2022/06/06 08:02:49;;;;;;;;;0.00;0.00;;;;;;;;5054190;28;9661;-76
2022/06/06 08:05:23;;;;;;;;;1.75;1.00;;;;;;;;5060471;28;9481;-75
2022/06/06 08:07:51;;;;;;;;;1.00;1.00;;;;;;;;5042514;28;10070;-75
2022/06/06 08:10:22;;;;;;;;;0.50;0.50;;;;;;;;5056002;28;9469;-75
2022/06/06 08:12:57;;;;;;;;;3.25;1.00;;;;;;;;5030317;28;9630;-75
2022/06/06 08:15:29;;;;;;;;;0.00;0.00;;;;;;;;5010579;28;9668;-77
2022/06/06 08:18:19;;;;;;;;;0.75;0.75;;;;;;;;5030197;28;9821;-76
2022/06/06 08:20:52;;;;;;;;;0.00;0.00;;;;;;;;5029545;28;9657;-76
2022/06/06 08:23:19;;;;;;;;;1.00;1.00;;;;;;;;5051794;28;9665;-75
2022/06/06 08:25:46;;;;;;;;;0.00;0.00;;;;;;;;5110453;28;9860;-76
2022/06/06 08:28:12;;;;;;;;;0.00;0.00;;;;;;;;5111675;28;9948;-75
2022/06/06 08:30:39;;;;;;;;;0.00;0.00;;;;;;;;5111950;28;9786;-86
2022/06/06 08:33:45;;;;;;;;;2.00;1.00;;;;;;;;5109696;27;9801;-87
2022/06/06 08:36:48;;;;;;;;;;;;;;;;;;;;;
2022/06/06 08:39:23;;;;;;;;;0.00;0.00;;;;;;;;5128575;27;37696;-83
2022/06/06 08:42:07;;;;;;;;;0.00;0.00;;;;;;;;5141040;27;9761;-83
2022/06/06 08:44:49;;;;;;;;;0.00;0.00;;;;;;;;5101798;28;9592;-83
2022/06/06 08:47:29;;;;;;;;;1.00;0.00;;;;;;;;5123016;28;9338;-81
2022/06/06 08:53:00;;;;;;;;;1.00;0.00;;;;;;;;5126742;28;9700;-78
2022/06/06 08:55:47;;;;;;;;;1.00;1.00;;;;;;;;5132070;27;9842;-88
2022/06/06 09:01:33;;;;;;;;;0.00;0.00;;;;;;;;5109039;22;9816;-80
2022/06/06 09:04:17;;;;;;;;;0.00;0.00;;;;;;;;5116738;28;9738;-79
2022/06/06 09:06:48;;;;;;;;;2.00;0.00;;;;;;;;5119504;28;9519;-80
2022/06/06 09:09:14;;;;;;;;;1.00;1.00;;;;;;;;5107057;28;10722;-80
2022/06/06 09:11:58;;;;;;;;;0.00;0.00;;;;;;;;5092356;28;9788;-80
2022/06/06 09:14:49;;;;;;;;;0.00;0.00;;;;;;;;5113748;28;8831;-80
2022/06/06 09:17:21;;;;;;;;;0.00;0.00;;;;;;;;5089587;28;9696;-80
2022/06/06 09:19:59;;;;;;;;;0.00;0.00;;;;;;;;5101175;28;9387;-79
2022/06/06 09:23:00;;;;;;;;;1.00;0.00;;;;;;;;5097561;28;11526;-79
2022/06/06 09:25:44;;;;;;;;;0.00;0.00;;;;;;;;5013959;28;9400;-80
2022/06/06 09:28:28;;;;;;;;;0.00;0.00;;;;;;;;4996813;28;9481;-80
2022/06/06 09:31:09;;;;;;;;;0.00;0.00;;;;;;;;5015356;28;9524;-79
2022/06/06 09:33:40;;;;;;;;;0.00;0.00;;;;;;;;4993734;28;9692;-80
2022/06/06 09:36:18;;;;;;;;;0.00;0.00;;;;;;;;5014536;28;9590;-79
2022/06/06 09:39:01;;;;;;;;;0.00;0.00;;;;;;;;4997672;28;10578;-79
2022/06/06 09:41:40;;;;;;;;;0.33;0.00;;;;;;;;4994270;28;9523;-80
2022/06/06 09:44:29;;;;;;;;;0.00;0.00;;;;;;;;4993665;28;9635;-80
2022/06/06 09:47:21;;;;;;;;;0.00;0.00;;;;;;;;5013836;28;9536;-80
2022/06/06 09:49:59;;;;;;;;;0.00;0.00;;;;;;;;4996849;28;9741;-79
2022/06/06 09:52:36;;;;;;;;;0.00;0.00;;;;;;;;5017061;28;9418;-80
2022/06/06 10:01:17;;;;;;;;;0.00;0.00;;;;;;;;5111659;28;9083;-80
2022/06/06 10:03:59;;;;;;;;;0.00;0.00;;;;;;;;5083578;28;9327;-81
2022/06/06 10:06:28;;;;;;;;;1.75;1.75;;;;;;;;5092808;28;9502;-78
2022/06/06 10:08:56;;;;;;;;;0.33;0.33;;;;;;;;5103053;28;9483;-80
2022/06/06 10:11:24;;;;;;;;;2.33;2.00;;;;;;;;5103763;28;10212;-78
2022/06/06 10:13:49;;;;;;;;;0.00;0.00;;;;;;;;5084245;28;9440;-81
2022/06/06 10:16:17;;;;;;;;;1.00;1.00;;;;;;;;5083971;28;9514;-80
2022/06/06 10:18:48;;;;;;;;;0.00;0.00;;;;;;;;5096126;28;8728;-77
2022/06/06 10:21:27;;;;;;;;;2.00;0.00;;;;;;;;5088695;28;9216;-80
2022/06/06 10:23:59;;;;;;;;;0.33;0.00;;;;;;;;5085964;28;9393;-78
2022/06/06 10:26:34;;;;;;;;;0.75;0.75;;;;;;;;5094002;28;9477;-76
2022/06/06 10:29:11;;;;;;;;;3.00;2.50;;;;;;;;5093027;28;9519;-82
2022/06/06 10:31:39;;;;;;;;;22.50;19.50;;;;;;;;5079197;28;9597;-79
2022/06/06 10:34:05;;;;;;;;;10.00;10.00;;;;;;;;5090462;28;10449;-80
2022/06/06 10:36:40;;;;;;;;;6.50;6.50;;;;;;;;5081280;28;10985;-79
2022/06/06 10:39:11;;;;;;;;;21.25;18.75;;;;;;;;5080897;28;10042;-80
2022/06/06 10:41:43;;;;;;;;;1.00;1.00;;;;;;;;5104459;28;10246;-79
2022/06/06 10:44:26;;;;;;;;;0.00;0.00;;;;;;;;5124566;28;9576;-81
2022/06/06 10:47:07;;;;;;;;;1.33;0.00;;;;;;;;5101441;28;9647;-77
2022/06/06 10:49:35;;;;;;;;;1.00;1.00;;;;;;;;5101107;28;10367;-73
2022/06/06 10:52:06;;;;;;;;;0.00;0.00;;;;;;;;5100102;28;9483;-86
2022/06/06 10:54:50;;;;;;;;;0.00;0.00;;;;;;;;5091633;28;9050;-85
2022/06/06 10:57:34;;;;;;;;;0.00;0.00;;;;;;;;5089199;28;9590;-84
2022/06/06 11:00:03;;;;;;;;;0.00;0.00;;;;;;;;5087449;28;9497;-80
2022/06/06 11:02:46;;;;;;;;;2.00;2.00;;;;;;;;5115613;28;9230;-86
2022/06/06 11:05:41;;;;;;;;;0.67;0.67;;;;;;;;5118055;28;9519;-81
2022/06/06 11:08:09;;;;;;;;;0.67;0.67;;;;;;;;5060377;28;10224;-83
2022/06/06 11:10:50;;;;;;;;;5.67;4.00;;;;;;;;5050928;28;9277;-87
2022/06/06 11:13:21;;;;;;;;;5.00;4.00;;;;;;;;5058156;28;9416;-78
2022/06/06 11:15:58;;;;;;;;;3.00;2.00;;;;;;;;5077175;28;9639;-78
2022/06/06 11:18:31;;;;;;;;;11.50;10.25;;;;;;;;5053388;28;9933;-79
2022/06/06 11:21:06;;;;;;;;;0.67;0.67;;;;;;;;5069594;28;9924;-83
2022/06/06 11:23:34;;;;;;;;;0.67;0.67;;;;;;;;5073732;28;9389;-84
2022/06/06 11:26:11;;;;;;;;;0.67;0.67;;;;;;;;5052555;28;9279;-84
2022/06/06 11:28:42;;;;;;;;;0.00;0.00;;;;;;;;5069905;28;9599;-80
2022/06/06 11:31:36;;;;;;;;;12.00;10.75;;;;;;;;5079977;28;9283;-79
2022/06/06 11:34:13;;;;;;;;;0.00;0.00;;;;;;;;5066555;28;9609;-83
2022/06/06 11:36:47;;;;;;;;;0.00;0.00;;;;;;;;5072425;28;9293;-78
2022/06/06 11:39:19;;;;;;;;;5.00;4.67;;;;;;;;5073383;28;9651;-81
2022/06/06 11:41:47;;;;;;;;;2.00;2.00;;;;;;;;5070634;28;9369;-80
2022/06/06 11:44:28;;;;;;;;;0.33;0.00;;;;;;;;5086929;27;9246;-80
2022/06/06 11:47:02;;;;;;;;;2.00;0.00;;;;;;;;5120433;27;9267;-80
2022/06/06 11:49:44;;;;;;;;;0.00;0.00;;;;;;;;5118687;27;9016;-79
2022/06/06 11:52:09;;;;;;;;;1.00;1.00;;;;;;;;5115963;28;8881;-80
2022/06/06 11:54:34;;;;;;;;;0.00;0.00;;;;;;;;5111972;28;9286;-80
2022/06/06 11:57:06;;;;;;;;;0.00;0.00;;;;;;;;5108100;27;8803;-79
2022/06/06 11:59:40;;;;;;;;;0.33;0.00;;;;;;;;5114203;28;8835;-80
2022/06/06 12:02:32;;;;;;;;;0.00;0.00;;;;;;;;5100712;28;9166;-78
2022/06/06 12:05:16;;;;;;;;;0.00;0.00;;;;;;;;5114760;28;9009;-79
2022/06/06 12:07:54;;;;;;;;;0.00;0.00;;;;;;;;5092733;28;8749;-76
2022/06/06 12:10:23;;;;;;;;;0.00;0.00;;;;;;;;5094309;28;10461;-77
2022/06/06 12:13:04;;;;;;;;;0.75;0.00;;;;;;;;5108347;28;8865;-79
2022/06/06 12:15:43;;;;;;;;;0.00;0.00;;;;;;;;5109376;28;8779;-79
2022/06/06 12:18:15;;;;;;;;;0.67;0.00;;;;;;;;5092309;28;8753;-78
2022/06/06 12:21:03;;;;;;;;;0.00;0.00;;;;;;;;5111142;28;8987;-76
2022/06/06 12:23:44;;;;;;;;;0.00;0.00;;;;;;;;5090893;28;8790;-78
2022/06/06 12:26:21;;;;;;;;;0.00;0.00;;;;;;;;5108701;28;8741;-76
2022/06/06 12:28:47;;;;;;;;;0.00;0.00;;;;;;;;5109810;28;8812;-76
2022/06/06 12:31:18;;;;;;;;;0.00;0.00;;;;;;;;5110159;28;8895;-75
2022/06/06 12:33:47;;;;;;;;;0.50;0.00;;;;;;;;5110150;28;8841;-78
2022/06/06 12:36:16;;;;;;;;;0.00;0.00;;;;;;;;5112010;28;9035;-77
2022/06/06 12:38:42;;;;;;;;;0.00;0.00;;;;;;;;5116421;28;8833;-78
2022/06/06 12:41:12;;;;;;;;;0.67;0.67;;;;;;;;5115335;28;8958;-78
2022/06/06 12:43:37;;;;;;;;;0.00;0.00;;;;;;;;5114086;28;8862;-78
2022/06/06 12:46:05;;;;;;;;;0.00;0.00;;;;;;;;5110688;28;9001;-77
2022/06/06 12:48:38;;;;;;;;;0.00;0.00;;;;;;;;5102581;28;8767;-78
2022/06/06 12:51:23;;;;;;;;;0.00;0.00;;;;;;;;5092737;28;10574;-78
2022/06/06 12:54:00;;;;;;;;;0.00;0.00;;;;;;;;5115432;28;8743;-81
2022/06/06 12:56:38;;;;;;;;;0.00;0.00;;;;;;;;5110823;28;8761;-79
2022/06/06 12:59:03;;;;;;;;;0.00;0.00;;;;;;;;5112552;28;8732;-79
2022/06/06 13:01:47;;;;;;;;;0.00;0.00;;;;;;;;5112138;28;8852;-77
2022/06/06 13:04:25;;;;;;;;;0.00;0.00;;;;;;;;5083265;28;8862;-77
2022/06/06 13:07:09;;;;;;;;;0.00;0.00;;;;;;;;5109599;28;8759;-79
2022/06/06 13:09:46;;;;;;;;;0.75;0.00;;;;;;;;5109003;28;8881;-79
2022/06/06 13:12:22;;;;;;;;;0.00;0.00;;;;;;;;5099651;28;10120;-79
2022/06/06 13:15:00;;;;;;;;;0.25;0.25;;;;;;;;5106778;28;8793;-82
2022/06/06 13:17:28;;;;;;;;;0.00;0.00;;;;;;;;5112698;28;8797;-81
2022/06/06 13:20:11;;;;;;;;;1.25;0.00;;;;;;;;5106242;28;8838;-79
2022/06/06 13:22:55;;;;;;;;;1.25;0.25;;;;;;;;5095397;28;10319;-79
2022/06/06 13:25:39;;;;;;;;;0.00;0.00;;;;;;;;5116701;28;8811;-79
2022/06/06 13:28:19;;;;;;;;;0.50;0.00;;;;;;;;5119796;28;9728;-77
2022/06/06 13:30:45;;;;;;;;;0.00;0.00;;;;;;;;5107765;28;8725;-80
2022/06/06 13:33:18;;;;;;;;;0.00;0.00;;;;;;;;5121698;28;8805;-79
2022/06/06 13:35:56;;;;;;;;;0.00;0.00;;;;;;;;5121585;28;9297;-81
2022/06/06 13:38:32;;;;;;;;;0.00;0.00;;;;;;;;5107428;28;8795;-80
2022/06/06 13:41:08;;;;;;;;;0.00;0.00;;;;;;;;5102650;27;8889;-79
2022/06/06 13:43:53;;;;;;;;;0.00;0.00;;;;;;;;5111393;27;10353;-79
2022/06/06 13:46:22;;;;;;;;;0.25;0.00;;;;;;;;5107688;27;9926;-78
2022/06/06 13:48:48;;;;;;;;;0.00;0.00;;;;;;;;5134034;27;8765;-78
2022/06/06 13:51:20;;;;;;;;;0.00;0.00;;;;;;;;5135367;27;8837;-76
2022/06/06 13:53:45;;;;;;;;;0.00;0.00;;;;;;;;5116012;27;10032;-76
2022/06/06 13:56:17;;;;;;;;;0.00;0.00;;;;;;;;5123441;27;8829;-75
2022/06/06 13:59:10;;;;;;;;;0.00;0.00;;;;;;;;5101539;28;8833;-75
2022/06/06 14:01:54;;;;;;;;;0.00;0.00;;;;;;;;5116108;28;8840;-75
2022/06/06 14:04:38;;;;;;;;;0.00;0.00;;;;;;;;5093315;28;10244;-77
2022/06/06 14:07:22;;;;;;;;;0.00;0.00;;;;;;;;5097881;28;8976;-77
2022/06/06 14:09:47;;;;;;;;;0.00;0.00;;;;;;;;5105141;28;8854;-78
2022/06/06 14:12:31;;;;;;;;;0.00;0.00;;;;;;;;5119090;28;8854;-77
2022/06/06 14:15:09;;;;;;;;;0.00;0.00;;;;;;;;5103103;28;8752;-77
2022/06/06 14:17:37;;;;;;;;;0.00;0.00;;;;;;;;5115127;28;8791;-77
2022/06/06 14:20:07;;;;;;;;;0.00;0.00;;;;;;;;5099056;28;8761;-77
2022/06/06 14:22:34;;;;;;;;;0.00;0.00;;;;;;;;5116153;28;8763;-77
2022/06/06 14:25:01;;;;;;;;;1.00;0.00;;;;;;;;5119919;28;8778;-77
2022/06/06 14:27:27;;;;;;;;;0.00;0.00;;;;;;;;5118743;28;8713;-77
2022/06/06 14:30:01;;;;;;;;;1.50;0.00;;;;;;;;5099079;28;8809;-77
2022/06/06 14:32:30;;;;;;;;;0.50;0.00;;;;;;;;5099794;27;8776;-76
2022/06/06 14:34:57;;;;;;;;;0.00;0.00;;;;;;;;5131669;27;8745;-78
2022/06/06 14:37:25;;;;;;;;;1.75;0.00;;;;;;;;5132819;27;8813;-78
2022/06/06 14:39:52;;;;;;;;;0.00;0.00;;;;;;;;5127897;27;8804;-78
2022/06/06 14:42:20;;;;;;;;;0.00;0.00;;;;;;;;5130746;27;8723;-77
2022/06/06 14:44:47;;;;;;;;;0.00;0.00;;;;;;;;5129128;27;8820;-77
2022/06/06 14:47:18;;;;;;;;;0.25;0.00;;;;;;;;5105682;28;9663;-78
2022/06/06 14:50:45;;;;;;;;;0.00;0.00;;;;;;;;5124301;28;8789;-78
2022/06/06 14:52:37;;;;;;;;;0.00;0.00;;;;;;;;5106832;28;8847;-78
2022/06/06 14:55:03;;;;;;;;;0.00;0.00;;;;;;;;5116750;27;8853;-77
2022/06/06 14:57:30;;;;;;;;;0.00;0.00;;;;;;;;5123326;28;9750;-76
2022/06/06 14:59:58;;;;;;;;;0.00;0.00;;;;;;;;5104017;28;9770;-77
2022/06/06 15:02:24;;;;;;;;;0.00;0.00;;;;;;;;5108438;28;8771;-77
2022/06/06 15:05:10;;;;;;;;;0.00;0.00;;;;;;;;5120577;28;8862;-77
2022/06/06 15:07:42;;;;;;;;;1.25;0.00;;;;;;;;5111750;28;8789;-77
2022/06/06 15:10:16;;;;;;;;;0.00;0.00;;;;;;;;5093219;28;8778;-77
2022/06/06 15:12:41;;;;;;;;;0.00;0.00;;;;;;;;5085374;28;8795;-77
2022/06/06 15:15:09;;;;;;;;;0.00;0.00;;;;;;;;5107470;28;8837;-78
2022/06/06 15:17:37;;;;;;;;;0.00;0.00;;;;;;;;5105653;28;8802;-77
2022/06/06 15:20:13;;;;;;;;;0.00;0.00;;;;;;;;5111482;28;8815;-77
2022/06/06 15:22:41;;;;;;;;;0.00;0.00;;;;;;;;5085263;28;8771;-77
2022/06/06 15:25:14;;;;;;;;;0.00;0.00;;;;;;;;5103863;28;8739;-79
2022/06/06 15:27:45;;;;;;;;;0.00;0.00;;;;;;;;5103506;28;8804;-79
2022/06/06 15:30:10;;;;;;;;;0.00;0.00;;;;;;;;5115743;28;8823;-79
2022/06/06 15:32:42;;;;;;;;;1.00;0.00;;;;;;;;5107454;28;8854;-80
2022/06/06 15:35:10;;;;;;;;;0.00;0.00;;;;;;;;5106959;28;8817;-80
2022/06/06 15:37:41;;;;;;;;;0.00;0.00;;;;;;;;5115735;28;8811;-80
2022/06/06 15:40:33;;;;;;;;;0.00;0.00;;;;;;;;5115194;28;8749;-80
2022/06/06 15:43:02;;;;;;;;;2.00;0.00;;;;;;;;5099247;28;8846;-80
2022/06/06 15:45:46;;;;;;;;;0.00;0.00;;;;;;;;5108265;28;8777;-79
2022/06/06 15:48:22;;;;;;;;;1.25;0.00;;;;;;;;5105440;28;8839;-79
2022/06/06 15:51:08;;;;;;;;;0.50;0.00;;;;;;;;5104183;28;8750;-79
2022/06/06 15:53:57;;;;;;;;;1.00;0.00;;;;;;;;5123699;28;8710;-79
2022/06/06 15:56:31;;;;;;;;;0.00;0.00;;;;;;;;5026587;28;8896;-79